Cadiz, California
Current Conditions -  °F | °C
As of 8:56 AM on Thursday 27 Nov 2014 (Local Time) from KNXP Reporting Station
Clear Clear  
Wind Chill: 53°   Ceiling: Unl
Heat Index: 53°   Visibility: 10mi
Dew Point: 15°   Wind: 5mph
Humidity: 22%   Direction: 320°NW
Pressure: 30.34"   Gusts: NA
Location:  34.6377°N, 115.833°W
Report Text: KNXP 271656Z AUTO 32004KT 10SM CLR 12/M09 A3034 RMK AO2 SLP255 T01171094 $
Loading
Personal Weather Stations






























Interactive Weather Map New forecast layout! Learn more

10-Day Weather Forecast

Advertisements
Track Severe Weather on mobile